Time;durP1;ratioP1;P1;durP2;ratioP2;P2;SDS_P1;SDS_P2;PMS_P1;PMS_P2;Temp;Humidity;BMP_temperature;BMP_pressure;BME280_temperature;BME280_humidity;BME280_pressure;Samples;Min_cycle;Max_cycle;Signal;HPM_P1;HPM_P2
2021/10/19 00:00:46;;;;;;;13.03;10.77;;;;;;;9.59;83.83;102107.16;5070198;28;20181;-71
2021/10/19 00:03:11;;;;;;;12.63;10.23;;;;;;;9.58;83.81;102103.69;5059722;28;20207;-71
2021/10/19 00:05:36;;;;;;;16.07;10.67;;;;;;;9.59;83.92;102097.78;5068953;28;20562;-71
2021/10/19 00:08:02;;;;;;;11.63;10.43;;;;;;;9.58;83.88;102095.16;5067305;28;21260;-71
2021/10/19 00:10:28;;;;;;;11.80;10.13;;;;;;;9.57;84.03;102101.06;5070018;28;20251;-71
2021/10/19 00:12:53;;;;;;;14.07;10.70;;;;;;;9.55;83.93;102098.47;5060053;28;20658;-71
2021/10/19 00:15:19;;;;;;;12.60;10.20;;;;;;;9.53;83.94;102100.06;5069734;28;20255;-71
2021/10/19 00:17:46;;;;;;;12.00;10.20;;;;;;;9.51;83.72;102105.94;5067181;28;20229;-71
2021/10/19 00:20:13;;;;;;;12.57;11.17;;;;;;;9.48;84.16;102101.56;5049136;28;20193;-71
2021/10/19 00:22:39;;;;;;;12.43;10.40;;;;;;;9.46;84.57;102105.75;5063162;28;20189;-71
2021/10/19 00:25:06;;;;;;;14.43;10.83;;;;;;;9.46;83.76;102100.63;5069892;28;20832;-71
2021/10/19 00:27:32;;;;;;;13.80;10.90;;;;;;;9.51;84.05;102096.59;5068697;28;20255;-71
2021/10/19 00:29:58;;;;;;;13.97;11.07;;;;;;;9.54;84.50;102096.69;5068914;28;20204;-71
2021/10/19 00:32:24;;;;;;;14.67;12.00;;;;;;;9.52;84.18;102105.09;5064771;28;20208;-71
2021/10/19 00:34:49;;;;;;;15.43;11.23;;;;;;;9.51;84.97;102109.38;5069463;28;20221;-71
2021/10/19 00:37:14;;;;;;;14.47;12.07;;;;;;;9.53;84.40;102109.41;5067564;28;20209;-71
2021/10/19 00:39:40;;;;;;;13.83;11.13;;;;;;;9.55;84.27;102110.38;5069374;28;20192;-71
2021/10/19 00:42:05;;;;;;;12.87;10.90;;;;;;;9.54;84.00;102104.38;5068701;28;20208;-71
2021/10/19 00:44:30;;;;;;;12.40;11.10;;;;;;;9.58;84.30;102102.84;5069300;28;20169;-71
2021/10/19 00:46:58;;;;;;;14.47;11.40;;;;;;;9.59;85.05;102104.59;5067949;28;20314;-71
2021/10/19 00:49:24;;;;;;;14.73;11.70;;;;;;;9.59;84.59;102095.22;5069744;28;20292;-71
2021/10/19 00:51:49;;;;;;;15.20;12.40;;;;;;;9.60;84.24;102091.88;5061339;28;20192;-71
2021/10/19 00:54:15;;;;;;;13.83;11.93;;;;;;;9.61;84.58;102093.63;5066911;28;20221;-71
2021/10/19 00:56:40;;;;;;;15.67;12.57;;;;;;;9.65;84.20;102085.28;5060493;28;20224;-71
2021/10/19 00:59:07;;;;;;;13.80;12.30;;;;;;;9.66;84.11;102088.69;5066337;28;20654;-71
2021/10/19 01:01:32;;;;;;;13.80;11.90;;;;;;;9.66;84.06;102087.00;5065720;28;20672;-71
2021/10/19 01:03:57;;;;;;;16.20;12.17;;;;;;;9.65;84.41;102074.16;5068666;28;20193;-71
2021/10/19 01:06:23;;;;;;;14.13;11.80;;;;;;;9.69;83.76;102076.03;5063743;28;20197;-71
2021/10/19 01:08:49;;;;;;;15.10;12.30;;;;;;;9.68;83.81;102070.03;5057486;28;20236;-71
2021/10/19 01:11:14;;;;;;;16.53;12.57;;;;;;;9.68;84.05;102064.91;5062107;28;20229;-71
2021/10/19 01:13:40;;;;;;;14.47;12.27;;;;;;;9.71;83.53;102059.94;5068779;28;20213;-71
2021/10/19 01:16:10;;;;;;;16.63;12.93;;;;;;;9.73;83.94;102057.47;5068722;28;20185;-71
2021/10/19 01:18:36;;;;;;;16.70;12.07;;;;;;;9.73;83.73;102042.97;5069276;28;20301;-71
2021/10/19 01:21:04;;;;;;;15.53;12.53;;;;;;;9.73;83.55;102037.84;5068936;28;20291;-71
2021/10/19 01:23:29;;;;;;;16.77;12.97;;;;;;;9.73;84.29;102042.13;5067531;28;20193;-71
2021/10/19 01:25:55;;;;;;;15.40;13.07;;;;;;;9.71;84.04;102054.84;5068014;28;20181;-71
2021/10/19 01:28:21;;;;;;;15.80;12.40;;;;;;;9.73;84.23;102053.19;5048428;28;20202;-71
2021/10/19 01:30:49;;;;;;;17.27;13.17;;;;;;;9.74;84.35;102054.09;5048564;28;20186;-71
2021/10/19 01:33:15;;;;;;;16.17;13.00;;;;;;;9.74;84.81;102062.66;5048615;28;20228;-71
2021/10/19 01:35:46;;;;;;;15.53;13.27;;;;;;;9.77;84.01;102069.56;5048355;28;20265;-71
2021/10/19 01:38:18;;;;;;;18.77;13.33;;;;;;;9.79;84.26;102067.94;5048481;28;20202;-71
2021/10/19 01:40:44;;;;;;;16.67;13.27;;;;;;;9.79;84.10;102057.72;5048426;28;20628;-71
2021/10/19 01:43:11;;;;;;;16.13;13.50;;;;;;;9.81;84.22;102074.88;5048470;28;20194;-71
2021/10/19 01:45:37;;;;;;;19.00;13.30;;;;;;;9.82;83.83;102074.03;5048344;28;20201;-71
2021/10/19 01:48:02;;;;;;;18.47;14.13;;;;;;;9.83;84.44;102065.59;5050677;28;20202;-71
2021/10/19 01:50:28;;;;;;;19.80;13.87;;;;;;;9.81;84.21;102064.63;5052139;28;20240;-71
2021/10/19 01:52:53;;;;;;;18.10;13.87;;;;;;;9.84;83.92;102061.31;5052111;28;20277;-71
2021/10/19 01:55:18;;;;;;;19.23;14.30;;;;;;;9.87;83.39;102062.31;5052267;28;20320;-71
2021/10/19 01:57:44;;;;;;;19.17;14.20;;;;;;;9.91;83.47;102056.53;5050461;28;20214;-71
2021/10/19 02:00:10;;;;;;;20.30;14.80;;;;;;;9.93;83.62;102057.47;5052473;28;20201;-71
2021/10/19 02:02:39;;;;;;;18.27;14.77;;;;;;;9.92;83.65;102065.09;5052033;28;20196;-71
2021/10/19 02:05:05;;;;;;;19.87;14.50;;;;;;;9.95;83.48;102067.78;5066192;28;20204;-72
2021/10/19 02:07:31;;;;;;;18.77;13.67;;;;;;;9.96;83.32;102056.72;5071383;28;20213;-71
2021/10/19 02:09:56;;;;;;;18.07;14.33;;;;;;;9.96;83.09;102049.06;5071732;28;20200;-71
2021/10/19 02:12:21;;;;;;;17.93;13.77;;;;;;;9.96;83.76;102052.47;5071820;28;20223;-72
2021/10/19 02:14:47;;;;;;;19.40;13.67;;;;;;;9.97;83.62;102049.13;5070377;28;20201;-71
2021/10/19 02:17:12;;;;;;;17.43;14.03;;;;;;;10.00;83.75;102043.25;5071608;28;20226;-71
2021/10/19 02:19:37;;;;;;;18.47;13.77;;;;;;;9.99;84.47;102033.81;5070422;28;20197;-71
2021/10/19 02:22:03;;;;;;;18.47;14.47;;;;;;;10.01;83.94;102016.84;5071656;28;20224;-71
2021/10/19 02:24:28;;;;;;;18.50;14.63;;;;;;;10.02;83.49;102009.25;5071377;28;20201;-72
2021/10/19 02:26:53;;;;;;;18.87;14.13;;;;;;;10.06;83.38;102000.03;5071428;28;20540;-71
2021/10/19 02:29:19;;;;;;;16.67;13.97;;;;;;;10.08;83.25;101998.38;5071762;28;20772;-71
2021/10/19 02:31:46;;;;;;;22.03;15.20;;;;;;;10.09;83.59;101995.91;5071632;28;20676;-71
2021/10/19 02:34:11;;;;;;;18.43;14.50;;;;;;;10.07;83.71;102002.66;5069491;28;20217;-71
2021/10/19 02:36:37;;;;;;;18.53;14.03;;;;;;;10.11;83.44;101999.41;5051218;28;20193;-71
2021/10/19 02:39:06;;;;;;;17.63;14.00;;;;;;;10.11;83.73;102007.09;5051333;28;20706;-71
2021/10/19 02:41:35;;;;;;;19.03;14.97;;;;;;;10.11;83.45;102004.53;5051221;28;20327;-71
2021/10/19 02:44:00;;;;;;;17.40;14.90;;;;;;;10.11;83.57;101996.84;5051269;28;20181;-71
2021/10/19 02:46:26;;;;;;;19.00;15.17;;;;;;;10.15;83.30;101985.03;5051009;28;20194;-71
2021/10/19 02:48:52;;;;;;;18.90;14.63;;;;;;;10.14;83.61;101991.81;5074797;28;20181;-71
2021/10/19 02:51:18;;;;;;;19.27;15.13;;;;;;;10.15;83.46;101993.59;5084548;28;20548;-71
2021/10/19 02:53:43;;;;;;;21.30;16.17;;;;;;;10.16;83.70;101987.66;5072237;28;20221;-71
2021/10/19 02:56:09;;;;;;;18.90;15.43;;;;;;;10.16;83.67;101971.41;5091569;28;20203;-71
2021/10/19 02:58:34;;;;;;;20.93;15.40;;;;;;;10.18;83.59;101960.44;5091148;28;20208;-71
2021/10/19 03:00:59;;;;;;;19.70;16.00;;;;;;;10.18;84.12;101957.00;5091590;28;20223;-71
2021/10/19 03:03:25;;;;;;;22.13;15.53;;;;;;;10.18;83.28;101952.75;5090801;28;20188;-71
2021/10/19 03:05:50;;;;;;;21.67;15.07;;;;;;;10.17;83.33;101956.13;5071030;28;20185;-71
2021/10/19 03:08:15;;;;;;;19.07;15.50;;;;;;;10.19;83.50;101961.31;5071045;28;20209;-71
2021/10/19 03:10:41;;;;;;;21.17;15.63;;;;;;;10.21;83.15;101962.22;5073471;28;20177;-71
2021/10/19 03:13:06;;;;;;;21.47;16.70;;;;;;;10.21;83.36;101950.31;5091287;28;20177;-71
2021/10/19 03:15:31;;;;;;;21.00;15.50;;;;;;;10.22;83.39;101944.38;5091066;28;20180;-71
2021/10/19 03:17:57;;;;;;;22.27;16.30;;;;;;;10.22;83.39;101931.59;5091221;28;20231;-71
2021/10/19 03:20:22;;;;;;;22.00;17.83;;;;;;;10.22;83.65;101934.13;5091201;28;20206;-71
2021/10/19 03:22:48;;;;;;;22.07;16.10;;;;;;;10.20;83.53;101928.09;5091246;28;20188;-71
2021/10/19 03:25:13;;;;;;;24.57;16.77;;;;;;;10.21;83.52;101934.06;5087636;28;20176;-71
2021/10/19 03:27:38;;;;;;;24.87;17.97;;;;;;;10.22;83.35;101941.81;5070676;28;20292;-71
2021/10/19 03:30:07;;;;;;;22.23;16.40;;;;;;;10.23;83.20;101947.81;5069518;28;20224;-71
2021/10/19 03:32:32;;;;;;;20.97;17.03;;;;;;;10.22;83.12;101951.16;5070609;28;20189;-71
2021/10/19 03:34:58;;;;;;;21.53;16.70;;;;;;;10.24;83.31;101950.44;5070786;28;20258;-71
2021/10/19 03:37:24;;;;;;;21.90;16.70;;;;;;;10.26;83.08;101958.16;5070436;28;20216;-71
2021/10/19 03:39:49;;;;;;;22.73;16.57;;;;;;;10.26;83.05;101963.28;5070809;28;20185;-71
2021/10/19 03:42:14;;;;;;;23.90;17.17;;;;;;;10.24;83.40;101953.00;5068196;28;20184;-71
2021/10/19 03:44:40;;;;;;;21.30;16.70;;;;;;;10.25;83.76;101957.31;5050830;28;20864;-71
2021/10/19 03:47:05;;;;;;;23.80;16.97;;;;;;;10.23;83.70;101951.22;5053090;28;20213;-71
2021/10/19 03:49:30;;;;;;;22.23;17.03;;;;;;;10.24;83.51;101947.88;5090748;28;20223;-71
2021/10/19 03:51:56;;;;;;;24.90;17.20;;;;;;;10.24;84.14;101958.13;5090580;28;20225;-71
2021/10/19 03:54:21;;;;;;;22.33;17.67;;;;;;;10.25;84.13;101958.97;5090587;28;20669;-71
2021/10/19 03:56:46;;;;;;;23.67;17.90;;;;;;;10.23;84.54;101963.19;5088822;28;20973;-71
2021/10/19 03:59:12;;;;;;;23.97;17.37;;;;;;;10.22;84.13;101959.75;5087250;28;20192;-71
2021/10/19 04:01:37;;;;;;;22.63;17.27;;;;;;;10.21;84.17;101959.66;5070100;28;20189;-71
2021/10/19 04:04:03;;;;;;;24.77;18.63;;;;;;;10.22;84.09;101959.75;5064166;28;20193;-71
2021/10/19 04:06:29;;;;;;;21.73;17.87;;;;;;;10.23;83.93;101964.03;5068565;28;20182;-71
2021/10/19 04:08:54;;;;;;;22.97;17.10;;;;;;;10.23;84.32;101963.19;5069985;28;20197;-71
2021/10/19 04:11:20;;;;;;;25.33;18.43;;;;;;;10.22;84.13;101962.28;5069183;28;20220;-71
2021/10/19 04:13:45;;;;;;;23.10;17.30;;;;;;;10.26;84.15;101965.84;5069837;28;20939;-71
2021/10/19 04:16:11;;;;;;;28.10;20.87;;;;;;;10.27;84.43;101965.06;5067192;28;20262;-71
2021/10/19 04:18:36;;;;;;;27.03;19.00;;;;;;;10.28;83.94;101967.63;5049778;28;20209;-71
2021/10/19 04:21:02;;;;;;;24.20;19.13;;;;;;;10.31;83.82;101959.22;5049931;28;20190;-71
2021/10/19 04:23:27;;;;;;;26.57;19.50;;;;;;;10.34;83.48;101960.22;5049923;28;20182;-71
2021/10/19 04:25:53;;;;;;;26.70;20.43;;;;;;;10.37;83.79;101964.59;5049808;28;20193;-71
2021/10/19 04:28:18;;;;;;;27.70;19.83;;;;;;;10.38;84.29;101958.63;5049632;28;20205;-71
2021/10/19 04:30:46;;;;;;;26.47;20.03;;;;;;;10.41;83.34;101972.41;5050126;28;20178;-71
2021/10/19 04:33:11;;;;;;;29.97;20.70;;;;;;;10.41;83.61;101969.00;5052406;28;20565;-71
2021/10/19 04:35:37;;;;;;;26.43;19.93;;;;;;;10.43;83.25;101965.69;5069539;28;20200;-70
2021/10/19 04:38:02;;;;;;;27.80;20.17;;;;;;;10.46;83.41;101960.66;5068476;28;20209;-70
2021/10/19 04:40:27;;;;;;;27.37;20.43;;;;;;;10.46;83.57;101952.13;5069761;28;20223;-71
2021/10/19 04:42:53;;;;;;;25.37;20.67;;;;;;;10.46;83.70;101949.56;5069684;28;20650;-70
2021/10/19 04:45:20;;;;;;;25.10;18.87;;;;;;;10.46;83.45;101950.41;5068249;28;20186;-71
2021/10/19 04:47:45;;;;;;;28.77;20.20;;;;;;;10.47;83.88;101939.34;5068031;28;20209;-70
2021/10/19 04:50:10;;;;;;;26.47;19.50;;;;;;;10.47;83.87;101935.94;5067615;28;20239;-70
2021/10/19 04:52:37;;;;;;;29.17;21.10;;;;;;;10.47;83.89;101930.81;5049727;28;20197;-71
2021/10/19 04:55:03;;;;;;;26.73;19.70;;;;;;;10.47;83.59;101926.56;5049580;28;20226;-70
2021/10/19 04:57:32;;;;;;;29.50;21.60;;;;;;;10.47;83.85;101929.09;5049454;28;20209;-70
2021/10/19 04:59:58;;;;;;;29.87;19.50;;;;;;;10.48;84.75;101928.31;5049366;28;20669;-70
2021/10/19 05:02:23;;;;;;;27.43;20.40;;;;;;;10.51;83.80;101925.00;5049524;28;20190;-71
2021/10/19 05:04:49;;;;;;;29.47;21.33;;;;;;;10.50;84.24;101924.13;5049321;28;20257;-70
2021/10/19 05:07:14;;;;;;;30.30;20.90;;;;;;;10.50;84.35;101920.69;5051903;28;20218;-71
2021/10/19 05:09:39;;;;;;;26.07;20.10;;;;;;;10.50;84.28;101911.31;5069280;28;20181;-70
2021/10/19 05:12:05;;;;;;;28.50;20.30;;;;;;;10.53;84.33;101919.13;5069313;28;20232;-71
2021/10/19 05:14:31;;;;;;;30.17;20.67;;;;;;;10.57;83.69;101918.41;5054398;28;20373;-70
2021/10/19 05:16:56;;;;;;;29.43;20.80;;;;;;;10.59;83.81;101919.34;5065825;28;20224;-71
2021/10/19 05:19:22;;;;;;;30.83;21.87;;;;;;;10.58;84.08;101912.47;5071177;28;20194;-69
2021/10/19 05:21:47;;;;;;;31.40;21.63;;;;;;;10.60;84.53;101907.41;5065679;28;20193;-70
2021/10/19 05:24:12;;;;;;;30.03;22.27;;;;;;;10.61;83.94;101906.59;5073075;28;20197;-70
2021/10/19 05:26:37;;;;;;;25.40;20.10;;;;;;;10.63;83.95;101902.38;5072838;28;20192;-70
2021/10/19 05:29:03;;;;;;;27.17;20.70;;;;;;;10.64;83.69;101902.44;5070057;28;20185;-70
2021/10/19 05:31:29;;;;;;;27.63;21.00;;;;;;;10.66;84.01;101902.50;5071236;28;20197;-70
2021/10/19 05:33:54;;;;;;;28.77;22.20;;;;;;;10.68;83.79;101904.28;5068402;28;20220;-71
2021/10/19 05:36:19;;;;;;;28.97;22.23;;;;;;;10.69;84.16;101897.50;5060659;28;20190;-70
2021/10/19 05:38:45;;;;;;;28.57;21.60;;;;;;;10.71;84.43;101898.41;5067471;28;20235;-70
2021/10/19 05:41:10;;;;;;;30.87;22.50;;;;;;;10.71;84.33;101886.47;5071727;28;20193;-70
2021/10/19 05:43:35;;;;;;;30.03;23.57;;;;;;;10.72;84.29;101880.53;5072242;28;20268;-70
2021/10/19 05:46:00;;;;;;;31.60;23.93;;;;;;;10.73;84.46;101881.41;5066848;28;20182;-70
2021/10/19 05:48:26;;;;;;;28.43;22.20;;;;;;;10.74;84.20;101868.63;5052779;28;20205;-70
2021/10/19 05:50:52;;;;;;;30.53;24.23;;;;;;;10.73;84.88;101878.88;5052771;28;20182;-70
2021/10/19 05:53:17;;;;;;;27.80;22.03;;;;;;;10.77;83.80;101868.75;5052608;28;20189;-70
2021/10/19 05:55:42;;;;;;;30.90;22.73;;;;;;;10.78;84.45;101875.63;5052567;28;20182;-70
2021/10/19 05:58:08;;;;;;;28.10;21.80;;;;;;;10.80;84.38;101888.50;5052649;28;20263;-70
2021/10/19 06:00:33;;;;;;;28.10;22.07;;;;;;;10.79;84.55;101877.34;5066815;28;20217;-70
2021/10/19 06:02:59;;;;;;;32.77;22.73;;;;;;;10.79;84.83;101872.22;5072836;28;20178;-70
2021/10/19 06:05:24;;;;;;;28.07;21.30;;;;;;;10.80;84.86;101871.44;5071679;28;20204;-70
2021/10/19 06:07:51;;;;;;;30.07;21.97;;;;;;;10.83;84.95;101873.22;5071553;28;20291;-70
2021/10/19 06:10:20;;;;;;;28.07;22.07;;;;;;;10.84;84.63;101888.66;5072739;28;20201;-70
2021/10/19 06:12:46;;;;;;;31.00;21.77;;;;;;;10.83;84.54;101892.03;5072649;28;20185;-70
2021/10/19 06:15:11;;;;;;;29.90;23.37;;;;;;;10.86;84.67;101888.69;5058168;28;20213;-70
2021/10/19 06:17:36;;;;;;;29.60;22.70;;;;;;;10.87;84.25;101883.63;5061084;28;20213;-70
2021/10/19 06:20:03;;;;;;;29.50;22.20;;;;;;;10.90;84.39;101882.88;5071090;28;20185;-70
2021/10/19 06:22:29;;;;;;;30.47;21.47;;;;;;;10.91;84.03;101880.34;5070883;28;20639;-70
2021/10/19 06:24:54;;;;;;;28.53;21.27;;;;;;;10.94;84.13;101872.78;5072198;28;20176;-70
2021/10/19 06:27:20;;;;;;;27.87;21.50;;;;;;;10.95;84.26;101868.50;5071796;28;20279;-70
2021/10/19 06:29:45;;;;;;;29.70;21.53;;;;;;;10.97;84.49;101867.75;5071826;28;20665;-70
2021/10/19 06:32:10;;;;;;;27.60;21.77;;;;;;;11.00;84.10;101865.28;5066035;28;20190;-70
2021/10/19 06:34:36;;;;;;;26.27;20.30;;;;;;;11.02;84.01;101866.19;5050879;28;20718;-70
2021/10/19 06:37:01;;;;;;;29.97;20.73;;;;;;;11.06;83.70;101874.91;5051658;28;20205;-70
2021/10/19 06:39:26;;;;;;;27.70;21.43;;;;;;;11.07;83.95;101874.06;5050490;28;20916;-70
2021/10/19 06:41:52;;;;;;;27.97;21.80;;;;;;;11.05;83.85;101879.13;5051865;28;20712;-70
2021/10/19 06:44:17;;;;;;;27.73;20.63;;;;;;;11.07;83.91;101876.63;5051490;28;20190;-70
2021/10/19 06:46:42;;;;;;;24.87;20.93;;;;;;;11.10;83.81;101869.91;5034514;28;20259;-69
2021/10/19 06:49:08;;;;;;;30.10;21.50;;;;;;;11.15;83.79;101876.06;5051468;28;20277;-69
2021/10/19 06:51:33;;;;;;;28.83;21.87;;;;;;;11.17;83.82;101871.88;5056580;28;20205;-69
2021/10/19 06:53:58;;;;;;;25.90;20.67;;;;;;;11.19;83.63;101874.47;5058586;28;20594;-69
2021/10/19 06:56:24;;;;;;;28.57;22.10;;;;;;;11.19;84.08;101883.03;5051275;28;20188;-68
2021/10/19 06:58:49;;;;;;;28.77;22.10;;;;;;;11.18;84.26;101877.84;5051554;28;20281;-68
2021/10/19 07:01:16;;;;;;;28.00;21.57;;;;;;;11.24;84.01;101872.94;5051374;28;20206;-68
2021/10/19 07:03:41;;;;;;;28.37;21.17;;;;;;;11.29;84.11;101879.09;5050177;28;20174;-68
2021/10/19 07:06:07;;;;;;;28.03;21.70;;;;;;;11.35;83.88;101884.41;5051081;28;21012;-68
2021/10/19 07:08:33;;;;;;;28.77;22.17;;;;;;;11.37;83.98;101875.94;5049931;28;20221;-68
2021/10/19 07:10:59;;;;;;;28.13;22.37;;;;;;;11.37;83.96;101869.94;5051225;28;20193;-69
2021/10/19 07:13:25;;;;;;;29.10;22.57;;;;;;;11.40;84.23;101862.34;5051077;28;20182;-68
2021/10/19 07:15:54;;;;;;;27.60;21.57;;;;;;;11.42;84.20;101856.44;5050940;28;20193;-68
2021/10/19 07:18:21;;;;;;;29.17;22.17;;;;;;;11.45;83.91;101856.56;5051284;28;20209;-68
2021/10/19 07:20:48;;;;;;;28.77;21.63;;;;;;;11.51;83.78;101845.59;5051127;28;20181;-68
2021/10/19 07:23:14;;;;;;;30.70;22.20;;;;;;;11.55;83.65;101845.75;5051167;28;20281;-69
2021/10/19 07:25:39;;;;;;;29.40;22.40;;;;;;;11.60;83.83;101845.94;5050751;28;20597;-68
2021/10/19 07:28:04;;;;;;;27.10;22.37;;;;;;;11.64;83.77;101842.63;5058442;28;20217;-69
2021/10/19 07:30:30;;;;;;;28.27;21.53;;;;;;;11.70;83.47;101851.41;5066844;28;20682;-68
2021/10/19 07:32:55;;;;;;;28.20;21.23;;;;;;;11.75;83.19;101849.84;5050680;28;20216;-68
2021/10/19 07:35:22;;;;;;;28.77;21.00;;;;;;;11.81;83.19;101859.44;5052207;28;20231;-68
2021/10/19 07:37:48;;;;;;;29.73;22.40;;;;;;;11.82;83.33;101861.16;5050351;28;20227;-68
2021/10/19 07:40:15;;;;;;;26.80;21.03;;;;;;;11.89;83.51;101855.41;5050652;28;20615;-69
2021/10/19 07:42:41;;;;;;;25.97;20.90;;;;;;;11.92;82.83;101858.94;5050312;28;20182;-68
2021/10/19 07:45:10;;;;;;;29.13;21.97;;;;;;;11.96;82.81;101847.94;5050413;28;20170;-69
2021/10/19 07:47:43;;;;;;;25.70;21.07;;;;;;;12.07;82.85;101854.25;5050148;28;20663;-69
2021/10/19 07:50:17;;;;;;;26.67;21.00;;;;;;;12.16;82.61;101857.09;5050397;28;20194;-68
2021/10/19 07:52:42;;;;;;;24.40;20.37;;;;;;;12.24;82.33;101858.19;5070045;28;20236;-69
2021/10/19 07:55:09;;;;;;;26.70;21.20;;;;;;;12.35;82.08;101859.34;5068769;28;20220;-69
2021/10/19 07:57:42;;;;;;;26.80;19.70;;;;;;;12.50;81.41;101862.34;5069897;28;20197;-69
2021/10/19 08:00:11;;;;;;;23.67;19.20;;;;;;;12.57;81.20;101851.41;5068543;28;20189;-69
2021/10/19 08:02:41;;;;;;;24.10;20.07;;;;;;;12.65;80.82;101847.38;5070165;28;20189;-69
2021/10/19 08:05:12;;;;;;;22.60;18.27;;;;;;;12.76;80.56;101848.50;5069618;28;20182;-69
2021/10/19 08:07:38;;;;;;;26.47;20.13;;;;;;;12.88;80.57;101845.41;5069781;28;20213;-69
2021/10/19 08:10:04;;;;;;;23.80;18.93;;;;;;;13.03;79.90;101850.09;5070038;28;20181;-69
2021/10/19 08:12:29;;;;;;;25.20;18.57;;;;;;;13.21;78.91;101837.72;5068589;28;20238;-69
2021/10/19 08:15:00;;;;;;;25.57;19.80;;;;;;;13.39;78.34;101830.44;5069915;28;20213;-69
2021/10/19 08:17:25;;;;;;;22.23;18.07;;;;;;;13.66;77.46;101823.31;5068379;28;20227;-69
2021/10/19 08:19:51;;;;;;;20.00;17.57;;;;;;;13.85;76.60;101812.63;5069351;28;20239;-69
2021/10/19 08:22:16;;;;;;;22.60;17.97;;;;;;;13.90;76.94;101819.59;5069819;28;20219;-69
2021/10/19 08:24:41;;;;;;;19.80;17.23;;;;;;;13.88;77.33;101822.97;5068388;28;20185;-69
2021/10/19 08:27:07;;;;;;;22.70;19.03;;;;;;;13.94;77.31;101823.97;5069691;28;20206;-69
2021/10/19 08:29:32;;;;;;;20.47;17.40;;;;;;;13.86;77.42;101833.25;5069990;28;20189;-69
2021/10/19 08:31:57;;;;;;;20.77;17.27;;;;;;;13.82;77.10;101830.56;5069834;28;20338;-69
2021/10/19 08:34:23;;;;;;;21.53;16.60;;;;;;;13.90;77.58;101829.06;5069557;28;20205;-69
2021/10/19 08:36:48;;;;;;;23.90;18.10;;;;;;;13.84;76.96;101832.34;5069463;28;20220;-69
2021/10/19 08:39:14;;;;;;;20.10;17.47;;;;;;;13.82;77.45;101822.84;5068951;28;20185;-69
2021/10/19 08:41:39;;;;;;;18.57;16.57;;;;;;;13.86;77.53;101828.09;5069772;28;20184;-70
2021/10/19 08:44:06;;;;;;;19.80;16.37;;;;;;;13.83;77.32;101828.03;5069581;28;20185;-70
2021/10/19 08:46:31;;;;;;;20.03;16.87;;;;;;;13.93;77.38;101822.25;5069337;28;20685;-70
2021/10/19 08:48:57;;;;;;;22.87;17.40;;;;;;;13.90;77.81;101826.47;5069531;28;20189;-70
2021/10/19 08:51:23;;;;;;;19.90;16.67;;;;;;;13.82;77.49;101825.44;5069312;28;20629;-69
2021/10/19 08:53:48;;;;;;;21.83;17.63;;;;;;;13.88;77.79;101829.00;5057544;28;20597;-69
2021/10/19 08:56:13;;;;;;;19.70;16.23;;;;;;;13.87;77.69;101827.28;5063398;28;20625;-70
2021/10/19 08:58:40;;;;;;;19.03;16.03;;;;;;;13.94;78.34;101826.56;5068999;28;20556;-69
2021/10/19 09:01:10;;;;;;;19.97;17.27;;;;;;;13.99;77.96;101819.78;5069505;28;20231;-69
2021/10/19 09:03:49;;;;;;;20.70;17.00;;;;;;;14.01;77.64;101819.84;5068030;28;20242;-69
2021/10/19 09:06:15;;;;;;;18.63;15.70;;;;;;;14.07;78.32;101819.94;5069290;28;20603;-69
2021/10/19 09:08:52;;;;;;;19.00;16.00;;;;;;;14.13;77.93;101810.66;5068578;28;20311;-69
2021/10/19 09:11:17;;;;;;;18.97;16.13;;;;;;;14.14;77.61;101814.09;5069200;28;20642;-69
2021/10/19 09:13:53;;;;;;;22.40;16.53;;;;;;;14.20;77.71;101801.34;5067854;28;20217;-69
2021/10/19 09:16:34;;;;;;;18.83;15.70;;;;;;;14.19;77.72;101804.75;5069248;28;20191;-70
2021/10/19 09:19:00;;;;;;;19.20;15.53;;;;;;;14.26;77.55;101807.50;5069613;28;20188;-70
2021/10/19 09:21:30;;;;;;;18.50;15.73;;;;;;;14.35;77.40;101812.84;5069149;28;20258;-70
2021/10/19 09:24:16;;;;;;;18.33;15.07;;;;;;;14.41;76.68;101804.38;5057927;28;20209;-71
2021/10/19 09:26:49;;;;;;;19.50;16.00;;;;;;;14.49;77.08;101807.94;5061218;28;20217;-70
2021/10/19 09:29:15;;;;;;;17.77;14.70;;;;;;;14.48;77.59;101814.84;5067897;28;20216;-70
2021/10/19 09:31:40;;;;;;;18.77;15.47;;;;;;;14.50;77.98;101812.28;5067605;28;20193;-70
2021/10/19 09:34:11;;;;;;;18.10;14.83;;;;;;;14.50;77.34;101807.97;5069128;28;20865;-70
2021/10/19 09:36:36;;;;;;;19.30;15.00;;;;;;;14.52;76.94;101806.31;5068711;28;20197;-70
2021/10/19 09:39:02;;;;;;;18.13;14.43;;;;;;;14.51;77.28;101795.97;5067510;28;20197;-71
2021/10/19 09:41:27;;;;;;;16.60;13.90;;;;;;;14.54;77.51;101799.47;5069099;28;20220;-71
2021/10/19 09:43:53;;;;;;;16.50;13.63;;;;;;;14.66;77.59;101798.84;5069240;28;20662;-70
2021/10/19 09:46:25;;;;;;;16.00;13.70;;;;;;;14.72;77.42;101793.78;5068921;28;20284;-70
2021/10/19 09:48:52;;;;;;;16.93;14.50;;;;;;;14.84;76.53;101787.16;5069146;28;20193;-70
2021/10/19 09:51:17;;;;;;;16.37;14.00;;;;;;;14.92;76.51;101787.28;5067566;28;20193;-70
2021/10/19 09:53:44;;;;;;;17.77;14.93;;;;;;;14.86;77.00;101784.56;5067295;28;20216;-70
2021/10/19 09:56:10;;;;;;;16.30;13.77;;;;;;;14.94;76.51;101777.84;5068600;28;20741;-70
2021/10/19 09:58:36;;;;;;;16.83;13.27;;;;;;;14.95;76.24;101777.00;5068788;28;20224;-70
2021/10/19 10:01:03;;;;;;;16.40;13.17;;;;;;;15.04;76.01;101770.28;5068801;28;20186;-70
2021/10/19 10:03:29;;;;;;;18.33;13.80;;;;;;;15.06;76.04;101760.00;5068797;28;20185;-71
2021/10/19 10:05:55;;;;;;;15.70;13.47;;;;;;;15.09;76.07;101765.19;5068618;28;20184;-70
2021/10/19 10:08:23;;;;;;;15.83;13.63;;;;;;;15.13;75.90;101769.53;5067370;28;20582;-70
2021/10/19 10:10:57;;;;;;;17.23;14.13;;;;;;;15.24;76.04;101752.53;5072001;28;20669;-71
2021/10/19 10:13:24;;;;;;;14.53;13.03;;;;;;;15.22;76.20;101747.34;5072072;28;20191;-70
2021/10/19 10:15:50;;;;;;;14.50;12.90;;;;;;;15.31;76.12;101749.19;5072140;28;20551;-71
2021/10/19 10:18:15;;;;;;;16.43;12.70;;;;;;;15.39;76.49;101748.50;5071948;28;20295;-71
2021/10/19 10:20:49;;;;;;;15.70;12.97;;;;;;;15.42;75.52;101745.94;5070246;28;20192;-71
2021/10/19 10:23:21;;;;;;;14.10;12.43;;;;;;;15.38;75.56;101735.56;5072137;28;20654;-71
2021/10/19 10:25:57;;;;;;;15.63;12.40;;;;;;;15.54;75.50;101722.00;5070073;28;20193;-71
2021/10/19 10:28:34;;;;;;;13.70;12.00;;;;;;;15.72;74.65;101717.09;5070581;28;20303;-71
2021/10/19 10:31:16;;;;;;;15.27;12.27;;;;;;;16.40;72.44;101708.44;5071882;28;20193;-71
2021/10/19 10:33:44;;;;;;;14.40;11.07;;;;;;;16.70;71.14;101699.22;5071847;28;20327;-71
2021/10/19 10:36:11;;;;;;;13.73;11.23;;;;;;;16.77;70.91;101693.22;5071744;28;20330;-71
2021/10/19 10:38:38;;;;;;;13.97;11.60;;;;;;;16.60;71.56;101706.88;5068813;28;20732;-68
2021/10/19 10:41:15;;;;;;;13.07;11.77;;;;;;;16.44;72.02;101705.03;5068878;28;20193;-68
2021/10/19 10:43:42;;;;;;;14.50;11.60;;;;;;;16.51;71.77;101697.34;5071642;28;20215;-71
2021/10/19 10:46:19;;;;;;;14.60;12.20;;;;;;;16.73;71.71;101688.91;5071606;28;20264;-71
2021/10/19 10:48:45;;;;;;;13.90;11.00;;;;;;;16.46;71.77;101696.44;5071653;28;20338;-71
2021/10/19 10:51:13;;;;;;;13.77;10.87;;;;;;;16.26;72.87;101699.63;5071847;28;20185;-71
2021/10/19 10:53:44;;;;;;;13.93;11.60;;;;;;;16.10;73.45;101701.19;5071623;28;20319;-70
2021/10/19 10:56:12;;;;;;;12.93;10.90;;;;;;;15.99;73.33;101702.81;5069873;28;20189;-70
2021/10/19 10:58:39;;;;;;;12.10;10.73;;;;;;;16.06;73.99;101709.75;5070018;28;20694;-68
2021/10/19 11:01:14;;;;;;;12.43;11.13;;;;;;;16.00;74.19;101699.38;5071452;28;20230;-71
2021/10/19 11:03:40;;;;;;;15.00;10.93;;;;;;;16.09;74.67;101688.25;5071414;28;20598;-71
2021/10/19 11:06:05;;;;;;;11.67;10.00;;;;;;;16.00;74.06;101691.63;5071191;28;20232;-71
2021/10/19 11:08:35;;;;;;;12.80;10.63;;;;;;;16.05;74.07;101689.06;5069726;28;20237;-71